Weather at Hardwick Ranch Landing Strip [CLOSED]

Public forecast

Using degrees Fahrenheit for public forecast. Weather courtesy of forecast.io.

Closest aviation weather report (METAR) to Hardwick Ranch Landing Strip

Closest report is Edwards County Airport, 13.8 nm (25.5 km) S. Retrieved 2022/07/04 14:35 UTC (0 seconds ago):

KECU 041435Z AUTO 14012G20KT 10SM BKN015 24/19 A3014 RMK AO2

Closest aviation forecast (TAF) to Hardwick Ranch Landing Strip

Closest forecast is Kimble County Airport, 30.5 nm (56.5 km) NE. Retrieved 2022/07/04 12:34 UTC (2 hours ago):

TAF KJCT 041132Z 0412/0512 15009KT P6SM SCT250 FM041600 17014G22KT P6SM FEW250